TAF KSTJ
KSTJ 081741Z 0818/0918 16005KT P6SM FEW250 TEMPO 0818/0820 4SM HZ FM090600 16012KT P6SM BKN100=
METAR KSTJ
WC KSTJ
WS KSTJ
WV KSTJ